createdAt,value
2023-05-02T00:01:11.534Z,83.08
2023-05-02T00:03:43.151Z,82.90
2023-05-02T00:06:11.432Z,82.86
2023-05-02T00:08:39.299Z,83.24
2023-05-02T00:11:07.260Z,83.23
2023-05-02T00:13:35.663Z,83.00
2023-05-02T00:16:03.804Z,82.98
2023-05-02T00:18:31.941Z,82.75
2023-05-02T00:21:01.438Z,82.45
2023-05-02T00:23:29.422Z,82.71
2023-05-02T00:25:57.433Z,83.39
2023-05-02T00:28:26.632Z,83.63
2023-05-02T00:30:54.915Z,83.68
2023-05-02T00:33:23.060Z,83.86
2023-05-02T00:35:51.454Z,83.89
2023-05-02T00:38:21.063Z,83.92
2023-05-02T00:40:51.390Z,84.10
2023-05-02T00:43:19.717Z,84.05
2023-05-02T00:45:48.003Z,84.74
2023-05-02T00:48:19.371Z,84.56
2023-05-02T00:50:47.459Z,84.53
2023-05-02T00:53:16.451Z,84.17
2023-05-02T00:55:46.489Z,84.43
2023-05-02T00:58:16.736Z,84.17
2023-05-02T01:00:59.950Z,84.95
2023-05-02T01:03:41.296Z,85.30
2023-05-02T01:06:21.111Z,85.30
2023-05-02T01:09:04.320Z,85.43
2023-05-02T01:11:41.029Z,85.60
2023-05-02T01:14:13.676Z,85.57
2023-05-02T01:16:44.951Z,85.76
2023-05-02T01:19:26.915Z,85.75
2023-05-02T01:21:58.689Z,85.46
2023-05-02T01:24:30.084Z,85.53
2023-05-02T01:27:13.398Z,85.11
2023-05-02T01:29:44.718Z,84.94
2023-05-02T01:32:16.393Z,85.51
2023-05-02T01:34:49.994Z,85.16
2023-05-02T01:37:25.462Z,84.98
2023-05-02T01:39:57.331Z,85.46
2023-05-02T01:42:27.976Z,85.22
2023-05-02T01:44:59.115Z,84.98
2023-05-02T01:47:29.415Z,85.11
2023-05-02T01:49:59.749Z,85.39
2023-05-02T01:52:29.755Z,85.45
2023-05-02T01:55:00.821Z,85.15
2023-05-02T01:57:29.413Z,84.90
2023-05-02T02:00:00.945Z,85.31
2023-05-02T02:02:30.961Z,84.93
2023-05-02T02:04:59.770Z,84.91
2023-05-02T02:07:27.836Z,84.71
2023-05-02T02:09:56.078Z,84.54
2023-05-02T02:12:27.710Z,84.20
2023-05-02T02:15:04.446Z,84.14
2023-05-02T02:17:39.047Z,84.54
2023-05-02T02:20:09.864Z,84.52
2023-05-02T02:22:40.647Z,84.77
2023-05-02T02:25:12.653Z,84.53
2023-05-02T02:27:41.616Z,84.59
2023-05-02T02:30:12.391Z,84.18
2023-05-02T02:32:40.485Z,84.44
2023-05-02T02:35:09.410Z,83.92
2023-05-02T02:37:43.356Z,84.52
2023-05-02T02:40:18.760Z,84.16
2023-05-02T02:43:01.785Z,83.80
2023-05-02T02:45:38.505Z,84.10
2023-05-02T02:48:20.545Z,84.32
2023-05-02T02:54:26.941Z,83.42
2023-05-02T02:57:07.035Z,83.47
2023-05-02T03:00:11.570Z,83.63
2023-05-02T03:02:49.772Z,84.08
2023-05-02T03:05:25.838Z,83.90
2023-05-02T03:07:58.276Z,84.09
2023-05-02T03:10:26.459Z,84.08
2023-05-02T03:12:56.217Z,83.86
2023-05-02T03:16:24.156Z,83.63
2023-05-02T03:18:55.347Z,83.92
2023-05-02T03:21:33.295Z,83.49
2023-05-02T03:24:19.220Z,83.45
2023-05-02T03:26:48.588Z,83.40
2023-05-02T03:29:17.172Z,83.19
2023-05-02T03:31:45.849Z,83.25
2023-05-02T03:34:20.047Z,82.93
2023-05-02T03:36:51.462Z,83.22
2023-05-02T03:39:41.680Z,82.76
2023-05-02T03:42:12.476Z,82.92
2023-05-02T03:44:40.818Z,83.00
2023-05-02T03:47:09.591Z,82.45
2023-05-02T03:49:40.393Z,82.70
2023-05-02T03:52:08.515Z,82.81
2023-05-02T03:54:40.465Z,82.74
2023-05-02T03:57:11.824Z,82.46
2023-05-02T03:59:41.738Z,82.24
2023-05-02T04:02:11.639Z,82.61
2023-05-02T04:04:43.555Z,82.69
2023-05-02T04:07:19.603Z,83.01
2023-05-02T04:09:49.778Z,82.92
2023-05-02T04:12:41.383Z,83.20
2023-05-02T04:15:11.401Z,83.53
2023-05-02T04:17:40.142Z,83.78
2023-05-02T04:20:21.078Z,83.73
2023-05-02T04:22:50.351Z,84.65
2023-05-02T04:25:18.935Z,85.10
2023-05-02T04:27:50.961Z,85.37
2023-05-02T04:30:35.388Z,85.70
2023-05-02T04:33:31.106Z,86.06
2023-05-02T04:36:04.499Z,86.68
2023-05-02T04:38:32.676Z,87.09
2023-05-02T04:43:43.047Z,88.20
2023-05-02T04:46:45.165Z,88.15
2023-05-02T04:49:55.314Z,88.65
2023-05-02T04:52:37.228Z,89.14
2023-05-02T04:55:46.740Z,88.68
2023-05-02T04:58:51.120Z,88.71
2023-05-02T05:01:50.083Z,88.16
2023-05-02T05:04:47.246Z,87.60
2023-05-02T05:07:53.385Z,88.13
2023-05-02T05:10:30.757Z,88.10
2023-05-02T05:13:34.959Z,87.79
2023-05-02T05:16:40.554Z,86.52
2023-05-02T05:19:32.710Z,85.68
2023-05-02T05:25:30.952Z,84.31
2023-05-02T05:28:40.002Z,84.13
2023-05-02T05:31:39.661Z,83.13
2023-05-02T05:34:34.252Z,82.82
2023-05-02T05:37:52.628Z,83.42
2023-05-02T05:40:34.739Z,82.96
2023-05-02T05:43:45.716Z,82.08
2023-05-02T05:46:35.799Z,81.77
2023-05-02T05:49:38.561Z,81.63
2023-05-02T05:52:43.973Z,81.10
2023-05-02T05:55:35.909Z,80.85
2023-05-02T05:58:36.444Z,81.60
2023-05-02T06:01:33.354Z,80.78
2023-05-02T06:04:04.360Z,80.58
2023-05-02T06:06:57.329Z,80.14
2023-05-02T06:09:52.365Z,80.68
2023-05-02T06:12:56.302Z,79.38
2023-05-02T06:15:50.939Z,79.27
2023-05-02T06:18:52.110Z,78.98
2023-05-02T06:21:50.310Z,77.97
2023-05-02T06:24:51.124Z,76.98
2023-05-02T06:27:33.742Z,77.33
2023-05-02T06:30:45.159Z,77.44
2023-05-02T06:37:30.667Z,77.42
2023-05-02T06:40:36.176Z,76.93
2023-05-02T06:43:34.173Z,76.29
2023-05-02T06:46:32.144Z,75.76
2023-05-02T06:49:03.719Z,76.06
2023-05-02T06:51:36.719Z,75.97
2023-05-02T06:54:07.358Z,75.97
2023-05-02T06:56:36.055Z,75.21
2023-05-02T06:59:26.587Z,75.50
2023-05-02T07:01:57.194Z,75.59
2023-05-02T07:04:33.982Z,75.78
2023-05-02T07:07:41.916Z,75.15
2023-05-02T07:10:28.025Z,74.48
2023-05-02T07:12:58.083Z,74.94
2023-05-02T07:15:46.597Z,74.99
2023-05-02T07:18:46.178Z,74.16
2023-05-02T07:21:29.385Z,74.70
2023-05-02T07:23:57.761Z,74.56
2023-05-02T07:26:30.844Z,74.92
2023-05-02T07:28:59.455Z,74.59
2023-05-02T07:34:33.098Z,74.61
2023-05-02T07:37:01.113Z,74.13
2023-05-02T07:39:48.562Z,74.16
2023-05-02T07:42:19.111Z,73.88
2023-05-02T07:44:47.567Z,73.88
2023-05-02T07:47:16.061Z,72.50
2023-05-02T07:49:44.853Z,73.30
2023-05-02T07:52:13.364Z,73.02
2023-05-02T07:54:41.522Z,72.37
2023-05-02T07:57:11.745Z,72.19
2023-05-02T07:59:41.659Z,72.68
2023-05-02T08:02:11.508Z,73.45
2023-05-02T08:04:40.029Z,73.35
2023-05-02T08:07:08.446Z,73.15
2023-05-02T08:09:36.994Z,73.83
2023-05-02T08:12:10.417Z,74.01
2023-05-02T08:14:39.116Z,73.71
2023-05-02T08:17:13.246Z,74.13
2023-05-02T08:19:44.763Z,74.15
2023-05-02T08:22:14.076Z,74.08
2023-05-02T08:24:42.347Z,72.61
2023-05-02T08:27:12.342Z,71.87
2023-05-02T08:29:41.021Z,71.31
2023-05-02T08:32:10.956Z,70.03
2023-05-02T08:34:39.287Z,70.03
2023-05-02T08:37:10.582Z,70.27
2023-05-02T08:39:42.387Z,69.46
2023-05-02T08:42:22.826Z,69.00
2023-05-02T08:44:51.983Z,68.81
2023-05-02T08:47:24.809Z,68.69
2023-05-02T08:49:55.120Z,68.31
2023-05-02T08:52:26.331Z,68.78
2023-05-02T08:54:56.101Z,67.47
2023-05-02T08:57:24.316Z,66.95
2023-05-02T08:59:52.464Z,65.92
2023-05-02T09:02:35.060Z,65.41
2023-05-02T09:05:08.543Z,64.96
2023-05-02T09:07:46.958Z,64.08
2023-05-02T09:10:15.328Z,63.40
2023-05-02T09:12:43.977Z,63.18
2023-05-02T09:15:16.984Z,62.68
2023-05-02T09:17:49.666Z,62.11
2023-05-02T09:20:18.352Z,61.43
2023-05-02T09:22:51.148Z,62.20
2023-05-02T09:25:31.849Z,61.29
2023-05-02T09:28:04.445Z,60.08
2023-05-02T09:30:40.361Z,59.30
2023-05-02T09:33:34.014Z,59.92
2023-05-02T09:36:04.813Z,59.12
2023-05-02T09:38:33.487Z,58.92
2023-05-02T09:41:05.394Z,58.63
2023-05-02T09:43:34.827Z,59.33
2023-05-02T09:46:11.101Z,60.30
2023-05-02T09:49:00.054Z,60.01
2023-05-02T09:51:37.096Z,60.09
2023-05-02T09:54:09.006Z,58.78
2023-05-02T09:56:54.410Z,58.50
2023-05-02T09:59:27.526Z,57.19
2023-05-02T10:02:07.886Z,56.65
2023-05-02T10:04:43.280Z,56.97
2023-05-02T10:07:18.239Z,57.39
2023-05-02T10:09:52.714Z,57.98
2023-05-02T10:12:39.436Z,57.58
2023-05-02T10:15:11.231Z,58.00
2023-05-02T10:17:43.344Z,56.15
2023-05-02T10:20:16.579Z,56.98
2023-05-02T10:22:46.530Z,55.97
2023-05-02T10:25:15.327Z,55.87
2023-05-02T10:27:48.244Z,55.22
2023-05-02T10:30:17.194Z,53.92
2023-05-02T10:32:49.236Z,54.56
2023-05-02T10:35:19.230Z,54.02
2023-05-02T10:37:49.005Z,53.23
2023-05-02T10:40:17.294Z,52.83
2023-05-02T10:42:47.788Z,51.89
2023-05-02T10:45:32.714Z,50.57
2023-05-02T10:48:19.625Z,48.78
2023-05-02T10:50:51.330Z,49.43
2023-05-02T10:53:30.306Z,49.86
2023-05-02T10:56:21.509Z,49.15
2023-05-02T10:58:50.799Z,49.15
2023-05-02T11:01:40.079Z,48.57
2023-05-02T11:04:10.858Z,47.22
2023-05-02T11:07:19.190Z,48.50
2023-05-02T11:09:47.217Z,48.85
2023-05-02T11:12:44.663Z,49.88
2023-05-02T11:15:15.422Z,50.17
2023-05-02T11:18:02.618Z,49.89
2023-05-02T11:20:31.941Z,49.46
2023-05-02T11:23:22.802Z,49.55
2023-05-02T11:25:52.138Z,47.83
2023-05-02T11:28:48.047Z,47.58
2023-05-02T11:31:53.023Z,47.15
2023-05-02T11:34:21.209Z,46.45
2023-05-02T11:36:49.270Z,46.29
2023-05-02T11:39:23.026Z,46.09
2023-05-02T11:41:51.170Z,45.97
2023-05-02T11:44:19.184Z,45.62
2023-05-02T11:46:47.330Z,45.31
2023-05-02T11:49:15.556Z,45.56
2023-05-02T11:51:43.442Z,45.37
2023-05-02T11:54:21.756Z,44.97
2023-05-02T11:56:49.787Z,43.90
2023-05-02T11:59:17.831Z,44.22
2023-05-02T12:01:49.411Z,44.72
2023-05-02T12:04:22.029Z,44.62
2023-05-02T12:06:56.847Z,44.84
2023-05-02T12:09:26.240Z,44.58
2023-05-02T12:11:54.841Z,43.84
2023-05-02T12:14:29.756Z,44.60
2023-05-02T12:16:59.798Z,45.33
2023-05-02T12:19:28.848Z,43.95
2023-05-02T12:21:56.717Z,44.61
2023-05-02T12:24:26.085Z,44.85
2023-05-02T12:27:12.758Z,44.12
2023-05-02T12:29:41.888Z,44.08
2023-05-02T12:32:09.818Z,44.44
2023-05-02T12:34:38.663Z,44.10
2023-05-02T12:37:07.659Z,44.89
2023-05-02T12:39:38.235Z,44.31
2023-05-02T12:42:13.012Z,43.88
2023-05-02T12:44:42.041Z,43.75
2023-05-02T12:47:13.764Z,44.58
2023-05-02T12:49:51.956Z,44.25
2023-05-02T12:52:20.282Z,44.37
2023-05-02T12:54:49.877Z,43.83
2023-05-02T12:57:25.767Z,43.32
2023-05-02T12:59:57.037Z,43.97
2023-05-02T13:02:25.965Z,42.77
2023-05-02T13:04:54.143Z,43.46
2023-05-02T13:07:21.937Z,44.11
2023-05-02T13:09:51.114Z,42.75
2023-05-02T13:12:19.176Z,42.82
2023-05-02T13:14:47.041Z,42.34
2023-05-02T13:17:15.138Z,42.26
2023-05-02T13:20:01.081Z,42.26
2023-05-02T13:22:30.404Z,42.89
2023-05-02T13:25:01.649Z,43.58
2023-05-02T13:27:29.626Z,42.21
2023-05-02T13:29:57.759Z,42.14
2023-05-02T13:32:28.549Z,41.47
2023-05-02T13:34:57.279Z,42.47
2023-05-02T13:37:26.668Z,42.09
2023-05-02T13:39:54.599Z,42.32
2023-05-02T13:42:24.237Z,42.55
2023-05-02T13:44:52.156Z,42.69
2023-05-02T13:47:20.239Z,42.99
2023-05-02T13:49:49.811Z,43.20
2023-05-02T13:52:17.980Z,42.79
2023-05-02T13:54:46.363Z,42.82
2023-05-02T13:57:14.483Z,42.72
2023-05-02T13:59:43.999Z,42.00
2023-05-02T14:02:15.745Z,41.53
2023-05-02T14:04:43.833Z,41.79
2023-05-02T14:07:28.266Z,40.86
2023-05-02T14:10:03.090Z,38.56
2023-05-02T14:12:40.636Z,39.68
2023-05-02T14:15:18.914Z,39.93
2023-05-02T14:17:47.348Z,38.68
2023-05-02T14:20:15.894Z,39.23
2023-05-02T14:22:44.172Z,40.18
2023-05-02T14:25:13.393Z,40.45
2023-05-02T14:27:44.442Z,40.21
2023-05-02T14:30:14.680Z,40.30
2023-05-02T14:32:42.782Z,39.89
2023-05-02T14:35:11.430Z,39.04
2023-05-02T14:37:39.542Z,39.85
2023-05-02T14:40:09.250Z,39.22
2023-05-02T14:42:37.389Z,39.92
2023-05-02T14:45:06.123Z,40.24
2023-05-02T14:47:36.350Z,40.26
2023-05-02T14:50:05.702Z,40.37
2023-05-02T14:52:33.850Z,40.12
2023-05-02T14:55:02.287Z,39.87
2023-05-02T14:57:30.476Z,39.77
2023-05-02T14:59:58.646Z,39.04
2023-05-02T15:02:27.250Z,40.26
2023-05-02T15:04:56.794Z,39.03
2023-05-02T15:07:24.912Z,40.08
2023-05-02T15:09:52.879Z,40.40
2023-05-02T15:12:20.791Z,40.44
2023-05-02T15:14:48.867Z,40.40
2023-05-02T15:17:16.797Z,40.10
2023-05-02T15:19:44.766Z,40.19
2023-05-02T15:22:15.890Z,40.49
2023-05-02T15:24:43.961Z,40.48
2023-05-02T15:27:12.041Z,39.98
2023-05-02T15:29:42.470Z,39.69
2023-05-02T15:32:10.512Z,40.05
2023-05-02T15:34:38.463Z,40.30
2023-05-02T15:37:06.468Z,40.03
2023-05-02T15:39:37.100Z,40.19
2023-05-02T15:42:05.862Z,40.33
2023-05-02T15:44:35.879Z,39.67
2023-05-02T15:47:04.609Z,38.89
2023-05-02T15:49:33.801Z,39.53
2023-05-02T15:52:03.489Z,38.97
2023-05-02T15:54:32.224Z,39.16
2023-05-02T15:57:02.699Z,39.59
2023-05-02T15:59:30.866Z,38.70
2023-05-02T16:01:58.979Z,38.69
2023-05-02T16:04:28.286Z,38.40
2023-05-02T16:06:56.667Z,38.87
2023-05-02T16:09:24.674Z,39.88
2023-05-02T16:11:52.984Z,39.38
2023-05-02T16:14:24.045Z,39.56
2023-05-02T16:16:52.055Z,39.65
2023-05-02T16:19:21.177Z,39.89
2023-05-02T16:21:49.203Z,39.93
2023-05-02T16:24:18.467Z,40.28
2023-05-02T16:26:46.714Z,40.45
2023-05-02T16:29:14.786Z,40.49
2023-05-02T16:31:44.947Z,40.83
2023-05-02T16:34:14.063Z,40.13
2023-05-02T16:36:44.347Z,40.83
2023-05-02T16:39:12.766Z,41.38
2023-05-02T16:41:43.067Z,41.77
2023-05-02T16:44:11.613Z,41.77
2023-05-02T16:46:39.700Z,41.66
2023-05-02T16:49:11.425Z,41.98
2023-05-02T16:51:42.663Z,41.93
2023-05-02T16:54:11.297Z,42.36
2023-05-02T16:56:40.848Z,42.30
2023-05-02T16:59:10.966Z,42.57
2023-05-02T17:01:40.721Z,42.74
2023-05-02T17:04:11.282Z,43.10
2023-05-02T17:06:40.329Z,43.34
2023-05-02T17:09:09.232Z,42.76
2023-05-02T17:11:39.199Z,43.17
2023-05-02T17:14:08.155Z,43.23
2023-05-02T17:16:36.635Z,42.47
2023-05-02T17:19:04.592Z,42.33
2023-05-02T17:21:35.936Z,42.98
2023-05-02T17:24:04.746Z,42.25
2023-05-02T17:26:33.023Z,42.39
2023-05-02T17:29:07.963Z,43.12
2023-05-02T17:31:38.972Z,43.11
2023-05-02T17:34:07.208Z,42.59
2023-05-02T17:36:42.993Z,43.50
2023-05-02T17:39:38.176Z,43.28
2023-05-02T17:42:04.507Z,43.59
2023-05-02T17:50:46.124Z,43.56
2023-05-02T17:53:21.911Z,43.61
2023-05-02T17:55:52.623Z,43.77
2023-05-02T17:58:20.807Z,43.84
2023-05-02T18:00:55.435Z,44.21
2023-05-02T18:06:57.617Z,44.44
2023-05-02T18:09:40.166Z,43.81
2023-05-02T18:12:11.146Z,43.97
2023-05-02T18:14:39.547Z,43.93
2023-05-02T18:17:09.891Z,44.03
2023-05-02T18:19:41.071Z,44.40
2023-05-02T18:22:12.516Z,44.22
2023-05-02T18:24:42.550Z,44.56
2023-05-02T18:27:11.000Z,44.18
2023-05-02T18:29:39.193Z,44.48
2023-05-02T18:32:09.338Z,44.39
2023-05-02T18:34:39.141Z,44.47
2023-05-02T18:37:07.639Z,44.72
2023-05-02T18:39:36.913Z,44.28
2023-05-02T18:42:08.296Z,45.04
2023-05-02T18:44:39.195Z,45.44
2023-05-02T18:47:07.698Z,45.22
2023-05-02T18:49:36.047Z,44.89
2023-05-02T18:52:05.838Z,45.03
2023-05-02T18:54:34.534Z,44.91
2023-05-02T18:57:03.853Z,45.33
2023-05-02T18:59:33.722Z,45.36
2023-05-02T19:02:02.053Z,45.37
2023-05-02T19:04:38.454Z,45.85
2023-05-02T19:07:16.002Z,46.04
2023-05-02T19:09:44.308Z,46.06
2023-05-02T19:12:12.792Z,46.75
2023-05-02T19:14:42.781Z,47.38
2023-05-02T19:17:13.273Z,46.72
2023-05-02T19:19:53.124Z,46.95
2023-05-02T19:22:23.786Z,47.82
2023-05-02T19:24:52.325Z,47.21
2023-05-02T19:27:24.997Z,47.17
2023-05-02T19:29:58.188Z,47.56
2023-05-02T19:32:26.619Z,47.77
2023-05-02T19:34:57.145Z,48.37
2023-05-02T19:37:26.188Z,48.30
2023-05-02T19:40:02.899Z,48.19
2023-05-02T19:42:31.458Z,48.62
2023-05-02T19:45:03.146Z,48.64
2023-05-02T19:47:32.791Z,48.73
2023-05-02T19:50:01.277Z,48.76
2023-05-02T19:52:29.704Z,48.99
2023-05-02T19:54:58.066Z,48.74
2023-05-02T19:57:29.857Z,49.23
2023-05-02T20:00:09.788Z,49.26
2023-05-02T20:02:42.049Z,49.87
2023-05-02T20:05:11.643Z,50.00
2023-05-02T20:07:39.975Z,50.11
2023-05-02T20:10:09.796Z,50.21
2023-05-02T20:12:38.638Z,50.40
2023-05-02T20:15:17.691Z,50.49
2023-05-02T20:17:46.125Z,51.15
2023-05-02T20:20:15.047Z,50.55
2023-05-02T20:22:44.616Z,50.75
2023-05-02T20:25:14.732Z,51.38
2023-05-02T20:27:43.429Z,51.09
2023-05-02T20:30:12.650Z,51.63
2023-05-02T20:32:42.668Z,51.83
2023-05-02T20:35:15.625Z,51.68
2023-05-02T20:37:43.963Z,52.21
2023-05-02T20:40:13.087Z,52.08
2023-05-02T20:42:42.679Z,52.56
2023-05-02T20:45:14.021Z,52.54
2023-05-02T20:47:47.508Z,53.39
2023-05-02T20:50:17.043Z,52.61
2023-05-02T20:52:45.113Z,53.44
2023-05-02T20:55:13.021Z,53.25
2023-05-02T20:57:58.530Z,53.05
2023-05-02T21:01:04.761Z,53.87
2023-05-02T21:03:59.532Z,53.96
2023-05-02T21:06:40.479Z,53.79
2023-05-02T21:10:13.173Z,54.53
2023-05-02T21:13:20.882Z,54.24
2023-05-02T21:16:31.315Z,53.84
2023-05-02T21:18:58.608Z,53.82
2023-05-02T21:21:26.711Z,54.62
2023-05-02T21:23:55.727Z,54.67
2023-05-02T21:26:23.570Z,54.11
2023-05-02T21:28:51.435Z,54.48
2023-05-02T21:31:19.433Z,54.73
2023-05-02T21:33:47.217Z,54.22
2023-05-02T21:36:16.672Z,54.49
2023-05-02T21:38:44.713Z,54.75
2023-05-02T21:41:12.779Z,55.09
2023-05-02T21:43:41.905Z,54.71
2023-05-02T21:46:11.730Z,55.25
2023-05-02T21:48:39.824Z,55.03
2023-05-02T21:51:08.694Z,55.02
2023-05-02T21:53:38.293Z,55.44
2023-05-02T21:56:08.017Z,55.59
2023-05-02T21:58:36.195Z,55.33
2023-05-02T22:01:04.203Z,55.25
2023-05-02T22:03:33.699Z,55.87
2023-05-02T22:06:06.007Z,56.13
2023-05-02T22:08:34.842Z,55.78
2023-05-02T22:11:06.725Z,56.24
2023-05-02T22:13:34.845Z,55.69
2023-05-02T22:16:03.104Z,56.47
2023-05-02T22:18:31.095Z,56.39
2023-05-02T22:20:58.904Z,56.50
2023-05-02T22:23:26.930Z,57.25
2023-05-02T22:25:54.820Z,57.29
2023-05-02T22:28:24.029Z,57.62
2023-05-02T22:30:51.896Z,57.45
2023-05-02T22:33:19.855Z,57.78
2023-05-02T22:35:47.724Z,58.00
2023-05-02T22:38:16.651Z,58.34
2023-05-02T22:40:44.524Z,58.93
2023-05-02T22:43:12.279Z,59.15
2023-05-02T22:45:41.453Z,59.77
2023-05-02T22:48:09.509Z,59.32
2023-05-02T22:50:37.585Z,59.77
2023-05-02T22:53:05.625Z,59.90
2023-05-02T22:55:33.453Z,60.22
2023-05-02T22:58:01.298Z,60.49
2023-05-02T23:00:29.105Z,60.34
2023-05-02T23:02:58.425Z,60.84
2023-05-02T23:05:26.279Z,60.62
2023-05-02T23:07:54.075Z,60.88
2023-05-02T23:10:22.006Z,61.09
2023-05-02T23:12:50.308Z,61.09
2023-05-02T23:15:18.259Z,61.05
2023-05-02T23:17:46.119Z,61.17
2023-05-02T23:20:19.446Z,61.63
2023-05-02T23:22:47.509Z,61.31
2023-05-02T23:25:16.298Z,61.47
2023-05-02T23:27:44.099Z,61.37
2023-05-02T23:30:12.934Z,61.23
2023-05-02T23:32:41.205Z,62.02
2023-05-02T23:35:11.811Z,60.96
2023-05-02T23:37:42.009Z,61.02
2023-05-02T23:40:10.798Z,61.54
2023-05-02T23:42:40.399Z,61.00
2023-05-02T23:45:09.268Z,60.82
2023-05-02T23:47:37.490Z,60.58
2023-05-02T23:50:05.744Z,61.42
2023-05-02T23:52:34.177Z,61.54
2023-05-02T23:55:03.494Z,61.45
2023-05-02T23:57:31.648Z,61.43
2023-05-02T23:59:59.576Z,61.67
